Terminal Aerodrome Forecast
Issued by NWS

Home | Current Version | Previous Version | Text Only | Print | Product List | Glossary On
Versions: 1 2 3 4 5 6 7 8 9 10 11 12 13 14 15 16 17 18 19 20 21 22 23 24 25 26 27 28 29 30 31 32 33
000
FTUS45 KGJT 231120
TAFTEX
TAF
KTEX 231120Z 2312/2412 13003KT P6SM SCT120
     FM231800 19010G20KT P6SM VCTS SCT100CB BKN150
      TEMPO 2320/2324 VRB20G35KT -TSRA BKN080CB
     FM240300 15008KT P6SM VCSH SCT060 BKN100
     FM240600 13004KT P6SM SCT100 BKN150=

USA.gov is the U.S. government's official web portal to all federal, state and local government web resources and services.